createdAt,value
2022-11-20T00:01:30.356Z,25.40
2022-11-20T00:03:58.892Z,25.53
2022-11-20T00:09:01.007Z,18.63
2022-11-20T00:11:29.837Z,26.17
2022-11-20T00:13:59.783Z,25.85
2022-11-20T00:16:29.378Z,22.37
2022-11-20T00:18:56.236Z,23.40
2022-11-20T00:21:25.884Z,23.07
2022-11-20T00:23:55.325Z,29.83
2022-11-20T00:26:24.052Z,31.00
2022-11-20T00:28:56.068Z,25.75
2022-11-20T00:31:24.077Z,21.93
2022-11-20T00:33:50.841Z,20.20
2022-11-20T00:36:20.095Z,19.53
2022-11-20T00:38:47.723Z,19.97
2022-11-20T00:41:16.724Z,22.08
2022-11-20T00:43:44.020Z,24.48
2022-11-20T00:46:14.774Z,22.80
2022-11-20T00:48:41.788Z,20.60
2022-11-20T00:51:09.133Z,21.33
2022-11-20T00:53:35.984Z,21.93
2022-11-20T00:56:07.569Z,20.30
2022-11-20T00:58:36.944Z,20.20
2022-11-20T01:01:21.948Z,19.63
2022-11-20T01:03:51.302Z,20.70
2022-11-20T01:06:24.121Z,21.63
2022-11-20T01:08:53.470Z,21.77
2022-11-20T01:11:23.304Z,21.17
2022-11-20T01:13:51.812Z,21.80
2022-11-20T01:18:53.190Z,20.80
2022-11-20T01:21:25.959Z,24.83
2022-11-20T01:23:53.184Z,19.10
2022-11-20T01:26:22.329Z,19.63
2022-11-20T01:31:16.402Z,18.23
2022-11-20T01:33:44.466Z,21.30
2022-11-20T01:36:12.729Z,23.67
2022-11-20T01:38:40.333Z,23.55
2022-11-20T01:41:08.710Z,23.55
2022-11-20T01:43:36.048Z,23.80
2022-11-20T01:46:05.212Z,22.73
2022-11-20T01:51:07.809Z,18.47
2022-11-20T01:53:38.229Z,21.53
2022-11-20T01:56:10.657Z,19.53
2022-11-20T01:58:40.757Z,19.07
2022-11-20T02:01:07.879Z,20.77
2022-11-20T02:03:34.813Z,21.13
2022-11-20T02:06:13.815Z,21.53
2022-11-20T02:11:07.944Z,20.03
2022-11-20T02:13:44.831Z,20.90
2022-11-20T02:16:16.165Z,22.30
2022-11-20T02:18:44.404Z,19.33
2022-11-20T02:21:18.537Z,19.38
2022-11-20T02:23:57.112Z,19.93
2022-11-20T02:26:26.607Z,19.87
2022-11-20T02:28:53.465Z,18.83
2022-11-20T02:31:20.474Z,19.37
2022-11-20T02:33:47.292Z,19.33
2022-11-20T02:36:16.585Z,19.47
2022-11-20T02:38:44.670Z,21.40
2022-11-20T02:41:11.738Z,21.35
2022-11-20T02:43:38.524Z,21.53
2022-11-20T02:46:09.165Z,20.20
2022-11-20T02:48:36.131Z,20.47
2022-11-20T02:51:03.394Z,19.43
2022-11-20T02:53:30.279Z,20.57
2022-11-20T02:55:57.402Z,20.60
2022-11-20T02:58:24.165Z,18.70
2022-11-20T03:00:51.442Z,19.57
2022-11-20T03:03:18.340Z,21.60
2022-11-20T03:05:45.417Z,20.67
2022-11-20T03:08:12.195Z,23.43
2022-11-20T03:10:39.260Z,22.63
2022-11-20T03:13:06.398Z,24.50
2022-11-20T03:15:33.408Z,28.97
2022-11-20T03:18:00.245Z,28.37
2022-11-20T03:20:27.321Z,25.43
2022-11-20T03:22:55.189Z,24.10
2022-11-20T03:25:23.078Z,25.23
2022-11-20T03:27:49.879Z,24.53
2022-11-20T03:30:17.022Z,23.20
2022-11-20T03:32:44.292Z,25.60
2022-11-20T03:35:11.369Z,23.40
2022-11-20T03:37:38.144Z,20.87
2022-11-20T03:40:05.943Z,20.57
2022-11-20T03:42:47.936Z,21.03
2022-11-20T03:45:17.110Z,21.37
2022-11-20T03:47:44.861Z,21.23
2022-11-20T03:50:14.625Z,21.50
2022-11-20T03:52:41.802Z,21.37
2022-11-20T03:55:09.284Z,35.77
2022-11-20T03:57:36.082Z,31.23
2022-11-20T04:00:04.364Z,24.03
2022-11-20T04:02:31.244Z,28.40
2022-11-20T04:04:58.345Z,31.07
2022-11-20T04:07:25.176Z,29.93
2022-11-20T04:09:52.233Z,28.07
2022-11-20T04:12:19.010Z,27.87
2022-11-20T04:14:46.081Z,24.53
2022-11-20T04:17:12.816Z,25.43
2022-11-20T04:19:39.862Z,22.90
2022-11-20T04:22:06.717Z,21.50
2022-11-20T04:24:33.761Z,20.93
2022-11-20T04:27:00.543Z,24.50
2022-11-20T04:29:27.588Z,30.60
2022-11-20T04:31:54.377Z,25.00
2022-11-20T04:34:21.478Z,25.70
2022-11-20T04:36:48.284Z,23.23
2022-11-20T04:39:16.502Z,19.70
2022-11-20T04:41:43.645Z,20.02
2022-11-20T04:44:10.737Z,19.53
2022-11-20T04:46:40.968Z,22.07
2022-11-20T04:49:08.827Z,22.63
2022-11-20T04:51:36.085Z,21.67
2022-11-20T04:54:03.253Z,22.97
2022-11-20T04:56:30.172Z,23.37
2022-11-20T04:59:01.258Z,20.67
2022-11-20T05:01:28.175Z,20.30
2022-11-20T05:03:55.234Z,20.10
2022-11-20T05:06:23.400Z,18.37
2022-11-20T05:08:50.654Z,19.42
2022-11-20T05:11:20.137Z,18.20
2022-11-20T05:13:48.022Z,17.57
2022-11-20T05:16:18.647Z,16.50
2022-11-20T05:18:46.522Z,17.77
2022-11-20T05:21:14.269Z,18.93
2022-11-20T05:23:41.873Z,18.73
2022-11-20T05:26:16.069Z,18.93
2022-11-20T05:28:43.321Z,17.67
2022-11-20T05:31:16.237Z,19.63
2022-11-20T05:33:45.133Z,16.70
2022-11-20T05:36:14.304Z,16.75
2022-11-20T05:38:42.572Z,17.23
2022-11-20T05:41:09.290Z,17.63
2022-11-20T05:43:37.864Z,18.60
2022-11-20T05:46:06.124Z,19.08
2022-11-20T05:48:34.385Z,19.08
2022-11-20T05:51:02.901Z,21.27
2022-11-20T05:55:58.401Z,15.43
2022-11-20T05:58:25.856Z,17.77
2022-11-20T06:00:52.782Z,20.20
2022-11-20T06:03:20.087Z,20.63
2022-11-20T06:05:46.983Z,22.47
2022-11-20T06:08:14.031Z,22.60
2022-11-20T06:10:40.772Z,23.53
2022-11-20T06:13:07.860Z,25.93
2022-11-20T06:15:34.648Z,23.17
2022-11-20T06:18:01.709Z,25.10
2022-11-20T06:20:28.556Z,28.73
2022-11-20T06:22:55.597Z,32.30
2022-11-20T06:25:22.329Z,33.47
2022-11-20T06:27:49.317Z,38.93
2022-11-20T06:30:16.354Z,35.13
2022-11-20T06:32:43.690Z,38.57
2022-11-20T06:35:10.799Z,48.70
2022-11-20T06:37:37.896Z,47.67
2022-11-20T06:40:05.243Z,43.87
2022-11-20T06:42:33.415Z,45.80
2022-11-20T06:45:00.168Z,43.37
2022-11-20T06:47:27.217Z,34.47
2022-11-20T06:49:53.991Z,34.20
2022-11-20T06:52:21.064Z,32.90
2022-11-20T06:54:47.791Z,40.97
2022-11-20T06:57:14.837Z,35.90
2022-11-20T06:59:41.706Z,43.53
2022-11-20T07:02:13.103Z,34.43
2022-11-20T07:04:40.840Z,31.57
2022-11-20T07:07:07.943Z,34.93
2022-11-20T07:09:35.036Z,36.10
2022-11-20T07:12:02.114Z,33.60
2022-11-20T07:14:28.932Z,34.77
2022-11-20T07:16:56.185Z,31.40
2022-11-20T07:19:23.147Z,30.37
2022-11-20T07:21:50.333Z,28.77
2022-11-20T07:24:17.075Z,29.53
2022-11-20T07:26:48.001Z,31.90
2022-11-20T07:29:14.748Z,33.10
2022-11-20T07:31:41.892Z,32.17
2022-11-20T07:34:08.686Z,31.50
2022-11-20T07:36:35.965Z,30.20
2022-11-20T07:39:02.884Z,32.63
2022-11-20T07:41:30.185Z,31.67
2022-11-20T07:43:56.985Z,34.30
2022-11-20T07:46:23.996Z,41.27
2022-11-20T07:48:50.838Z,45.53
2022-11-20T07:51:17.951Z,40.60
2022-11-20T07:53:44.698Z,39.53
2022-11-20T07:56:12.084Z,39.10
2022-11-20T07:58:38.857Z,41.87
2022-11-20T08:01:07.821Z,39.33
2022-11-20T08:03:35.325Z,38.88
2022-11-20T08:06:03.007Z,40.50
2022-11-20T08:08:33.408Z,42.30
2022-11-20T08:11:33.595Z,43.80
2022-11-20T08:14:15.419Z,38.47
2022-11-20T08:16:44.828Z,39.47
2022-11-20T08:21:39.205Z,35.43
2022-11-20T08:24:06.750Z,35.80
2022-11-20T08:26:33.581Z,35.97
2022-11-20T08:29:00.826Z,38.97
2022-11-20T08:31:28.590Z,41.33
2022-11-20T08:33:56.005Z,40.53
2022-11-20T08:36:23.490Z,39.20
2022-11-20T08:38:55.324Z,32.60
2022-11-20T08:41:25.394Z,33.13
2022-11-20T08:43:57.695Z,31.90
2022-11-20T08:46:26.362Z,32.47
2022-11-20T08:48:54.230Z,32.03
2022-11-20T08:51:21.668Z,32.33
2022-11-20T08:53:49.677Z,34.53
2022-11-20T08:56:16.945Z,33.47
2022-11-20T08:59:15.439Z,30.87
2022-11-20T09:01:31.186Z,33.53
2022-11-20T09:03:58.493Z,33.47
2022-11-20T09:06:25.249Z,26.10
2022-11-20T09:08:55.720Z,22.80
2022-11-20T09:11:22.716Z,25.50
2022-11-20T09:13:50.492Z,34.03
2022-11-20T09:16:17.273Z,30.03
2022-11-20T09:18:44.451Z,31.13
2022-11-20T09:21:12.936Z,34.97
2022-11-20T09:23:40.437Z,28.75
2022-11-20T09:26:10.092Z,26.90
2022-11-20T09:28:37.534Z,27.17
2022-11-20T09:31:09.400Z,26.27
2022-11-20T09:33:37.032Z,27.83
2022-11-20T09:36:04.100Z,29.70
2022-11-20T09:38:31.194Z,30.23
2022-11-20T09:41:03.950Z,36.93
2022-11-20T09:47:01.313Z,29.43
2022-11-20T09:49:43.469Z,25.48
2022-11-20T09:52:29.302Z,26.20
2022-11-20T09:54:56.549Z,26.73
2022-11-20T09:57:32.571Z,26.85
2022-11-20T10:00:06.728Z,25.92
2022-11-20T10:02:49.847Z,24.25
2022-11-20T10:05:51.420Z,23.75
2022-11-20T10:08:22.825Z,22.67
2022-11-20T10:10:58.702Z,27.13
2022-11-20T10:13:34.148Z,26.77
2022-11-20T10:16:01.173Z,27.95
2022-11-20T10:18:38.020Z,29.13
2022-11-20T10:21:16.889Z,26.50
2022-11-20T10:23:57.288Z,25.02
2022-11-20T10:26:41.599Z,27.83
2022-11-20T10:29:18.088Z,32.20
2022-11-20T10:31:54.362Z,25.05
2022-11-20T10:34:44.548Z,25.03
2022-11-20T10:37:19.024Z,22.97
2022-11-20T10:39:55.732Z,24.33
2022-11-20T10:42:33.038Z,21.83
2022-11-20T10:45:24.319Z,23.03
2022-11-20T10:47:54.086Z,24.73
2022-11-20T10:50:23.080Z,23.77
2022-11-20T10:55:51.550Z,23.37
2022-11-20T10:58:42.194Z,29.73
2022-11-20T11:01:27.029Z,31.97
2022-11-20T11:03:56.508Z,30.37
2022-11-20T11:06:35.148Z,31.08
2022-11-20T11:09:12.899Z,25.10
2022-11-20T11:11:40.170Z,24.63
2022-11-20T11:14:13.157Z,24.53
2022-11-20T11:16:55.730Z,23.40
2022-11-20T11:19:23.681Z,24.20
2022-11-20T11:21:55.851Z,26.73
2022-11-20T11:24:43.090Z,28.87
2022-11-20T11:27:18.833Z,27.47
2022-11-20T11:29:47.520Z,25.20
2022-11-20T11:32:21.665Z,28.83
2022-11-20T11:35:20.077Z,26.53
2022-11-20T11:37:48.256Z,26.53
2022-11-20T11:40:23.966Z,27.38
2022-11-20T11:42:57.012Z,25.67
2022-11-20T11:45:24.789Z,25.97
2022-11-20T11:47:53.353Z,24.53
2022-11-20T11:50:22.066Z,25.35
2022-11-20T11:53:14.289Z,26.95
2022-11-20T11:55:45.080Z,25.47
2022-11-20T11:58:20.739Z,27.03
2022-11-20T12:01:07.984Z,28.10
2022-11-20T12:03:42.071Z,26.60
2022-11-20T12:06:16.572Z,25.40
2022-11-20T12:09:09.242Z,25.23
2022-11-20T12:11:44.934Z,22.03
2022-11-20T12:14:43.554Z,24.60
2022-11-20T12:17:15.146Z,25.33
2022-11-20T12:19:42.296Z,26.07
2022-11-20T12:22:34.343Z,27.20
2022-11-20T12:25:16.691Z,25.17
2022-11-20T12:28:18.006Z,23.57
2022-11-20T12:30:59.832Z,23.40
2022-11-20T12:33:59.090Z,23.23
2022-11-20T12:39:11.408Z,24.00
2022-11-20T12:42:14.970Z,23.87
2022-11-20T12:45:06.628Z,23.53
2022-11-20T12:47:51.180Z,22.17
2022-11-20T12:51:13.960Z,22.63
2022-11-20T12:54:10.815Z,22.80
2022-11-20T12:56:51.427Z,23.40
2022-11-20T12:59:28.390Z,24.10
2022-11-20T13:02:18.263Z,27.20
2022-11-20T13:04:54.197Z,23.80
2022-11-20T13:07:23.933Z,25.70
2022-11-20T13:09:51.991Z,27.67
2022-11-20T13:12:28.258Z,28.40
2022-11-20T13:15:06.074Z,28.33
2022-11-20T13:17:41.665Z,25.07
2022-11-20T13:20:17.292Z,25.67
2022-11-20T13:22:47.617Z,26.27
2022-11-20T13:25:31.748Z,26.37
2022-11-20T13:28:01.510Z,25.83
2022-11-20T13:30:30.858Z,27.93
2022-11-20T13:33:10.163Z,27.00
2022-11-20T13:38:05.495Z,23.67
2022-11-20T13:40:33.080Z,27.17
2022-11-20T13:43:19.193Z,26.83
2022-11-20T13:45:56.911Z,29.07
2022-11-20T13:48:27.347Z,23.63
2022-11-20T13:51:22.411Z,26.23
2022-11-20T13:54:05.601Z,28.97
2022-11-20T13:56:48.941Z,29.10
2022-11-20T13:59:24.959Z,31.63
2022-11-20T14:01:51.704Z,32.90
2022-11-20T14:04:30.126Z,27.37
2022-11-20T14:06:58.312Z,27.53
2022-11-20T14:09:31.223Z,30.45
2022-11-20T14:11:58.319Z,30.80
2022-11-20T14:14:27.976Z,29.70
2022-11-20T14:17:26.557Z,32.10
2022-11-20T14:19:54.948Z,31.60
2022-11-20T14:22:26.959Z,33.97
2022-11-20T14:25:02.817Z,34.27
2022-11-20T14:27:30.173Z,42.03
2022-11-20T14:29:57.331Z,33.43
2022-11-20T14:32:29.467Z,35.73
2022-11-20T14:35:09.778Z,33.33
2022-11-20T14:37:39.999Z,33.07
2022-11-20T14:40:31.200Z,34.90
2022-11-20T14:42:59.513Z,32.67
2022-11-20T14:45:27.393Z,21.85
2022-11-20T14:47:57.610Z,28.87
2022-11-20T14:50:28.619Z,32.33
2022-11-20T14:52:57.640Z,32.13
2022-11-20T14:55:27.671Z,33.47
2022-11-20T14:58:22.027Z,35.57
2022-11-20T15:01:26.486Z,32.67
2022-11-20T15:04:20.648Z,34.03
2022-11-20T15:06:53.356Z,40.40
2022-11-20T15:09:20.231Z,36.90
2022-11-20T15:12:02.470Z,51.73
2022-11-20T15:14:31.638Z,48.70
2022-11-20T15:16:58.844Z,46.17
2022-11-20T15:19:27.466Z,42.27
2022-11-20T15:21:54.557Z,40.10
2022-11-20T15:24:21.852Z,42.80
2022-11-20T15:26:49.243Z,43.10
2022-11-20T15:29:21.920Z,42.43
2022-11-20T15:31:48.999Z,39.97
2022-11-20T15:34:16.631Z,42.17
2022-11-20T15:36:44.788Z,42.03
2022-11-20T15:39:12.662Z,41.23
2022-11-20T15:41:40.261Z,39.30
2022-11-20T15:44:07.586Z,41.20
2022-11-20T15:46:41.228Z,42.43
2022-11-20T15:49:13.454Z,40.97
2022-11-20T15:51:47.669Z,39.13
2022-11-20T15:54:21.588Z,49.90
2022-11-20T15:56:50.346Z,57.63
2022-11-20T15:59:17.100Z,50.43
2022-11-20T16:01:44.404Z,44.40
2022-11-20T16:04:16.348Z,36.17
2022-11-20T16:06:43.868Z,33.87
2022-11-20T16:09:10.715Z,38.07
2022-11-20T16:11:38.480Z,38.27
2022-11-20T16:14:25.208Z,54.73
2022-11-20T16:16:52.579Z,39.80
2022-11-20T16:19:19.650Z,33.73
2022-11-20T16:21:46.748Z,25.27
2022-11-20T16:24:17.268Z,33.60
2022-11-20T16:26:44.385Z,32.43
2022-11-20T16:29:11.353Z,29.93
2022-11-20T16:31:38.664Z,28.37
2022-11-20T16:34:11.792Z,29.87
2022-11-20T16:36:44.704Z,32.60
2022-11-20T16:39:12.650Z,33.30
2022-11-20T16:41:40.148Z,32.63
2022-11-20T16:44:11.714Z,35.87
2022-11-20T16:46:40.885Z,31.43
2022-11-20T16:51:38.937Z,30.37
2022-11-20T16:54:07.948Z,32.53
2022-11-20T16:56:35.257Z,34.10
2022-11-20T16:59:02.981Z,31.87
2022-11-20T17:01:30.740Z,31.57
2022-11-20T17:04:00.053Z,34.10
2022-11-20T17:06:29.962Z,29.47
2022-11-20T17:08:57.837Z,53.90
2022-11-20T17:11:25.935Z,90.35
2022-11-20T17:13:55.012Z,91.93
2022-11-20T17:16:24.283Z,46.30
2022-11-20T17:21:19.271Z,39.03
2022-11-20T17:23:47.079Z,65.67
2022-11-20T17:26:20.124Z,104.93
2022-11-20T17:28:47.844Z,54.87
2022-11-20T17:31:17.582Z,47.60
2022-11-20T17:33:46.413Z,49.33
2022-11-20T17:36:16.510Z,45.10
2022-11-20T17:38:44.606Z,53.10
2022-11-20T17:41:17.068Z,37.42
2022-11-20T17:43:44.460Z,41.77
2022-11-20T17:46:17.165Z,44.37
2022-11-20T17:48:44.853Z,61.73
2022-11-20T17:51:17.313Z,58.93
2022-11-20T17:53:46.638Z,43.73
2022-11-20T17:56:32.325Z,47.07
2022-11-20T17:58:59.511Z,61.77
2022-11-20T18:01:27.902Z,60.97
2022-11-20T18:03:56.750Z,48.50
2022-11-20T18:06:25.533Z,43.70
2022-11-20T18:08:52.809Z,49.70
2022-11-20T18:11:19.784Z,46.47
2022-11-20T18:14:07.706Z,48.00
2022-11-20T18:16:37.684Z,43.58
2022-11-20T18:19:04.785Z,44.10
2022-11-20T18:21:32.337Z,47.17
2022-11-20T18:23:59.098Z,42.00
2022-11-20T18:26:26.589Z,45.37
2022-11-20T18:28:54.236Z,56.17
2022-11-20T18:31:21.557Z,53.17
2022-11-20T18:33:48.589Z,51.97
2022-11-20T18:36:18.452Z,52.57
2022-11-20T18:38:47.603Z,62.40
2022-11-20T18:41:35.970Z,66.53
2022-11-20T18:44:23.376Z,81.50
2022-11-20T18:46:51.062Z,71.37
2022-11-20T18:49:18.227Z,75.60
2022-11-20T18:51:45.424Z,60.90
2022-11-20T18:54:13.583Z,56.07
2022-11-20T18:56:40.833Z,57.60
2022-11-20T18:59:09.688Z,80.93
2022-11-20T19:01:37.693Z,70.93
2022-11-20T19:04:12.152Z,56.50
2022-11-20T19:06:41.147Z,66.50
2022-11-20T19:09:10.417Z,70.93
2022-11-20T19:11:39.408Z,63.83
2022-11-20T19:14:06.502Z,79.00
2022-11-20T19:16:33.839Z,67.37
2022-11-20T19:19:03.351Z,55.57
2022-11-20T19:21:31.087Z,53.07
2022-11-20T19:24:00.113Z,63.43
2022-11-20T19:26:27.346Z,119.57
2022-11-20T19:28:54.225Z,89.33
2022-11-20T19:31:25.018Z,82.60
2022-11-20T19:33:57.173Z,82.03
2022-11-20T19:36:30.025Z,79.60
2022-11-20T19:38:57.376Z,90.33
2022-11-20T19:41:31.710Z,94.20
2022-11-20T19:44:00.036Z,83.93
2022-11-20T19:46:28.738Z,78.15
2022-11-20T19:48:56.436Z,61.00
2022-11-20T19:51:31.501Z,75.47
2022-11-20T19:54:00.034Z,76.00
2022-11-20T19:56:28.695Z,67.38
2022-11-20T19:58:56.933Z,71.00
2022-11-20T20:01:26.913Z,74.28
2022-11-20T20:03:54.358Z,77.87
2022-11-20T20:06:23.907Z,82.67
2022-11-20T20:09:00.960Z,71.87
2022-11-20T20:11:30.816Z,69.17
2022-11-20T20:13:59.122Z,63.93
2022-11-20T20:16:27.917Z,62.78
2022-11-20T20:18:56.752Z,57.15
2022-11-20T20:21:24.382Z,65.23
2022-11-20T20:23:55.365Z,62.03
2022-11-20T20:26:24.372Z,65.67
2022-11-20T20:28:51.463Z,65.32
2022-11-20T20:31:21.477Z,62.43
2022-11-20T20:33:48.571Z,57.97
2022-11-20T20:36:17.499Z,54.70
2022-11-20T20:38:46.349Z,55.28
2022-11-20T20:41:14.359Z,53.30
2022-11-20T20:44:00.333Z,48.33
2022-11-20T20:46:27.364Z,41.77
2022-11-20T20:48:55.034Z,43.03
2022-11-20T20:51:22.971Z,42.63
2022-11-20T20:53:50.496Z,42.10
2022-11-20T20:56:18.274Z,42.73
2022-11-20T20:58:45.380Z,49.83
2022-11-20T21:01:15.909Z,46.43
2022-11-20T21:03:43.055Z,42.97
2022-11-20T21:06:11.234Z,61.40
2022-11-20T21:08:40.805Z,30.77
2022-11-20T21:11:16.986Z,29.13
2022-11-20T21:13:45.363Z,21.80
2022-11-20T21:16:14.063Z,26.20
2022-11-20T21:18:41.097Z,25.65
2022-11-20T21:21:30.621Z,23.90
2022-11-20T21:23:57.439Z,33.63
2022-11-20T21:26:24.607Z,33.00
2022-11-20T21:28:51.380Z,49.83
2022-11-20T21:31:24.965Z,39.63
2022-11-20T21:33:53.812Z,37.27
2022-11-20T21:36:25.905Z,29.23
2022-11-20T21:38:54.957Z,29.00
2022-11-20T21:41:22.730Z,26.17
2022-11-20T21:44:15.837Z,29.13
2022-11-20T21:49:05.886Z,22.87
2022-11-20T21:51:33.393Z,21.17
2022-11-20T21:54:00.139Z,23.00
2022-11-20T21:56:27.298Z,22.23
2022-11-20T21:58:54.979Z,19.23
2022-11-20T22:01:29.734Z,22.23
2022-11-20T22:03:59.185Z,20.23
2022-11-20T22:06:30.421Z,20.83
2022-11-20T22:08:57.278Z,19.93
2022-11-20T22:11:24.359Z,24.10
2022-11-20T22:14:10.109Z,20.03
2022-11-20T22:16:38.135Z,20.00
2022-11-20T22:19:05.981Z,20.60
2022-11-20T22:21:33.520Z,21.27
2022-11-20T22:24:00.801Z,21.30
2022-11-20T22:26:39.689Z,20.50
2022-11-20T22:29:07.731Z,20.53
2022-11-20T22:31:34.813Z,18.63
2022-11-20T22:34:02.366Z,20.07
2022-11-20T22:36:31.250Z,23.67
2022-11-20T22:38:58.702Z,26.15
2022-11-20T22:41:27.855Z,26.23
2022-11-20T22:43:57.096Z,22.73
2022-11-20T22:46:25.293Z,24.13
2022-11-20T22:48:54.837Z,25.50
2022-11-20T22:51:25.090Z,25.17
2022-11-20T22:53:52.494Z,28.90
2022-11-20T22:56:19.818Z,25.50
2022-11-20T22:58:48.820Z,24.87
2022-11-20T23:01:31.078Z,23.10
2022-11-20T23:04:00.398Z,22.30
2022-11-20T23:06:27.687Z,27.97
2022-11-20T23:08:55.097Z,27.67
2022-11-20T23:11:24.654Z,26.27
2022-11-20T23:13:58.047Z,22.57
2022-11-20T23:16:27.975Z,25.07
2022-11-20T23:19:00.584Z,22.53
2022-11-20T23:21:28.338Z,21.23
2022-11-20T23:23:57.214Z,20.10
2022-11-20T23:26:26.420Z,19.47
2022-11-20T23:31:21.064Z,17.30
2022-11-20T23:33:47.886Z,19.70
2022-11-20T23:36:15.328Z,15.33
2022-11-20T23:38:42.280Z,17.23
2022-11-20T23:41:12.700Z,19.73
2022-11-20T23:43:39.718Z,24.10
2022-11-20T23:46:07.378Z,21.70
2022-11-20T23:48:36.585Z,19.97
2022-11-20T23:51:05.121Z,18.63
2022-11-20T23:53:32.145Z,19.55
2022-11-20T23:56:01.966Z,23.73
2022-11-20T23:58:38.792Z,23.10
